Latest Coastal Weather Observations for Wynyard

IDV60701

Issued at 8:21 pm EST Thursday 30 May 2024 (issued every 10 minutes, with the page automatically refreshed every 10 minutes)

About coastal observations | Map of coastal stations | Coastal observations for VIC | Marine services | Other Formats
Station Details ID: 091107 Name: WYNYARD AIRPORT Lat: -41.00 Lon: 145.73 Height: 12.0 m
Data from the previous 72 hours. | See also: Recent months at Wynyard
Date/Time
EST
Wind Sea
Height
m
Swell Vis
km
Cloud Weather Temp
°C
Press
MSL
hPa
Rain since
9am
mm
Dir  Spd
kts
Gust
kts
Height
m
Period
s
Dir
30/08:04pm NNW 15 28 - - - - 10 Cloudy - 15.3 1004.1 8.4
30/08:00pm NNW 14 21 - - - - 10 Cloudy - 15.2 1004.1 8.4
30/07:36pm N 12 21 - - - - 10 Partly cloudy - 15.1 1004.5 8.0
30/07:30pm N 11 15 - - - - 10 Partly cloudy - 15.1 1004.7 7.8
30/07:00pm N 13 18 - - - - 10 Partly cloudy - 15.2 1004.9 7.0
30/06:30pm N 14 21 - - - - 10 Partly cloudy - 15.1 1005.7 6.0
30/06:00pm N 13 22 - - - - 10 Cloudy Rain 15.1 1006.5 5.4
30/05:30pm NNW 14 21 - - - - 10 Partly cloudy - 15.0 1006.9 5.0
30/05:00pm N 13 20 - - - - 10 Partly cloudy - 15.1 1007.0 3.8
30/04:30pm NNW 12 19 - - - - 10 Partly cloudy - 15.3 1007.5 3.0
30/04:00pm NNW 13 20 - - - - 10 Partly cloudy - 15.3 1007.6 1.8
30/03:30pm NW 9 15 - - - - 10 Cloudy - 15.9 1007.9 0.4
30/03:00pm NW 12 19 - - - - 10 Cloudy Drizzle 16.7 1007.7 0.0
30/02:30pm NW 12 19 - - - - 10 Partly cloudy - 17.0 1007.7 0.0
30/02:00pm NW 13 20 - - - - 10 Partly cloudy - 17.1 1008.0 0.0
30/01:30pm NW 14 21 - - - - 10 Partly cloudy - 17.0 1008.5 0.0
30/01:00pm NW 12 19 - - - - 10 Cloudy - 17.2 1008.8 0.0
30/12:30pm NW 7 14 - - - - 10 Cloudy - 17.4 1009.4 0.0
30/12:00pm NNW 3 9 - - - - 10 Mostly cloudy - 17.2 1010.3 0.0
30/11:30am N 5 12 - - - - 10 Partly cloudy - 17.1 1011.1 0.0
30/11:00am E 9 12 - - - - 10 Partly cloudy - 16.1 1011.6 0.0
30/10:30am E 11 16 - - - - 10 Partly cloudy - 15.0 1011.9 0.0
30/10:00am E 13 18 - - - - 10 Partly cloudy - 14.6 1012.1 0.0
30/09:30am ESE 13 18 - - - - 10 Partly cloudy - 13.6 1013.1 0.0
30/09:00am ESE 10 15 - - - - 10 Partly cloudy - 12.9 1013.5 0.2
30/08:30am ESE 5 10 - - - - 10 - - 11.1 1014.1 0.2
30/08:18am SSE 5 9 - - - - 8 - - 9.6 1014.2 0.2
30/08:06am S 4 6 - - - - 5 - - 6.5 1014.4 0.2
30/08:00am SW 2 3 - - - - 6 - - 6.2 1014.6 0.2
30/07:56am WSW 3 5 - - - - 7 - - 6.3 1014.6 0.2
30/07:42am SSW 3 5 - - - - 5 - - 5.1 1014.6 0.2
30/07:30am S 3 4 - - - - 6 Partly cloudy - 5.6 1014.6 0.2
30/07:27am SSW 3 6 - - - - 7 Partly cloudy - 6.2 1014.5 0.2
30/07:08am NW 5 8 - - - - 10 Partly cloudy - 6.7 1014.9 0.2
30/07:05am WNW 5 8 - - - - 10 Partly cloudy - 6.6 1015.0 0.2
30/07:00am WNW 4 7 - - - - 6 Partly cloudy - 5.1 1015.1 0.2
30/06:35am S 5 7 - - - - 5 Partly cloudy - 4.7 1015.1 0.2
30/06:30am S 3 7 - - - - 6 - - 5.1 1015.2 0.2
30/06:12am NW 6 9 - - - - 10 - - 6.6 1015.0 0.2
30/06:00am W 3 7 - - - - 4 - - 4.6 1015.2 0.2
30/05:30am WSW 5 8 - - - - 2 Partly cloudy - 4.9 1015.3 0.2
30/05:25am W 5 7 - - - - 4 - - 4.5 1015.3 0.2
30/05:00am W 5 6 - - - - 9 Partly cloudy - 5.8 1015.3 0.2
30/04:56am WSW 4 5 - - - - 9 Partly cloudy - 5.1 1015.3 0.2
30/04:30am W 4 5 - - - - 10 Partly cloudy - 6.2 1015.7 0.2
30/04:00am W 4 5 - - - - 10 Cloudy - 6.4 1016.0 0.2
30/03:30am WNW 5 9 - - - - 10 Cloudy - 6.4 1016.5 0.2
30/03:00am W 6 7 - - - - 9 Mostly cloudy - 5.6 1016.9 0.2
30/02:30am W 5 6 - - - - 9 Cloudy - 5.7 1016.9 0.2
30/02:00am WNW 5 6 - - - - 9 Partly cloudy - 4.9 1017.2 0.2
30/01:34am W 5 7 - - - - 6 Partly cloudy - 4.9 1017.5 0.2
30/01:30am W 5 6 - - - - 6 Partly cloudy - 4.8 1017.5 0.2
30/01:24am W 5 7 - - - - 5 Partly cloudy - 4.5 1017.6 0.2
30/01:08am W 4 6 - - - - 5 Partly cloudy - 3.6 1017.8 0.2
30/01:01am WNW 6 7 - - - - 7 - - 4.4 1018.0 0.2
30/01:00am WNW 6 7 - - - - 7 - - 4.4 1018.0 0.2
30/12:30am WNW 6 8 - - - - 5 - - 5.3 1018.3 0.2
30/12:28am WNW 7 8 - - - - 5 - - 5.3 1018.4 0.2
30/12:00am W 5 7 - - - - 6 - - 4.8 1019.0 0.2
 
Date/Time
EST
Wind Sea
Height
m
Swell Vis
km
Cloud Weather Temp
°C
Press
MSL
hPa
Rain since
9am
mm
Dir  Spd
kts
Gust
kts
Height
m
Period
s
Dir
29/11:30pm WNW 6 7 - - - - 7 - - 5.2 1019.1 0.2
29/11:00pm W 5 6 - - - - 9 - - 5.3 1019.1 0.2
29/10:30pm WSW 5 7 - - - - 10 - - 6.0 1019.3 0.2
29/10:06pm W 7 8 - - - - 7 - - 5.2 1019.4 0.2
29/10:00pm WNW 6 7 - - - - 6 - - 5.4 1019.4 0.2
29/09:55pm WNW 5 6 - - - - 5 - - 4.9 1019.4 0.2
29/09:40pm WNW 5 6 - - - - 8 - - 6.4 1019.6 0.2
29/09:30pm WNW 6 7 - - - - 3 - - 5.8 1019.6 0.2
29/09:29pm WNW 6 7 - - - - 1 - - 5.6 1019.6 0.2
29/09:13pm W 5 5 - - - - 0.8 - - 5.2 1019.6 0.2
29/09:07pm W 5 6 - - - - 5 - - 5.6 1019.5 0.2
29/09:00pm W 6 6 - - - - 6 - - 6.4 1019.6 0.2
29/08:54pm W 6 7 - - - - 6 - - 5.8 1019.6 0.2
29/08:30pm W 5 6 - - - - 5 - - 6.9 1019.6 0.2
29/08:29pm W 5 6 - - - - 5 - - 6.9 1019.6 0.2
29/08:28pm W 5 6 - - - - 6 - - 6.4 1019.6 0.2
29/08:09pm WSW 4 6 - - - - 5 - - 6.6 1019.6 0.2
29/08:00pm W 4 6 - - - - 10 - - 7.4 1019.6 0.2
29/07:30pm SSW 1 4 - - - - 10 - - 7.5 1019.6 0.2
29/07:00pm S 2 5 - - - - 10 - - 7.8 1019.8 0.2
29/06:30pm S 1 4 - - - - 10 - - 9.1 1019.7 0.2
29/06:00pm CALM 0 0 - - - - 10 - - 9.5 1019.9 0.2
29/05:30pm NNW 5 5 - - - - 10 - - 12.5 1019.8 0.2
29/05:00pm N 4 5 - - - - 10 Partly cloudy - 13.6 1019.6 0.2
29/04:30pm NW 5 8 - - - - 10 Partly cloudy - 14.5 1019.8 0.2
29/04:00pm NNW 7 10 - - - - 10 - - 15.2 1019.9 0.2
29/03:30pm NNW 8 10 - - - - 10 Partly cloudy - 15.7 1020.0 0.2
29/03:00pm NNW 7 10 - - - - 10 Mostly clear - 16.0 1020.0 0.2
29/02:30pm NNW 8 12 - - - - 10 Partly cloudy - 16.2 1020.2 0.2
29/02:00pm NNE 6 8 - - - - 10 Partly cloudy - 16.2 1020.4 0.2
29/01:30pm NNW 7 11 - - - - 10 Partly cloudy - 16.1 1020.6 0.2
29/01:00pm NNE 6 8 - - - - 10 Partly cloudy - 16.3 1020.9 0.2
29/12:57pm NE 6 8 - - - - 10 Partly cloudy - 16.3 1021.0 0.2
29/12:30pm NE 6 8 - - - - 10 Partly cloudy - 15.9 1021.4 0.2
29/12:01pm ENE 5 8 - - - - 10 Partly cloudy - 15.0 1022.1 0.2
29/12:00pm ENE 5 8 - - - - 10 Cloudy - 15.0 1022.1 0.2
29/11:30am ENE 5 7 - - - - 10 Partly cloudy - 15.0 1022.5 0.2
29/11:00am WNW 1 5 - - - - 10 Partly cloudy - 15.3 1023.0 0.2
29/10:30am NW 3 4 - - - - 10 Partly cloudy - 12.6 1023.1 0.0
29/10:00am WNW 4 5 - - - - 10 - - 10.4 1023.2 0.0
29/09:30am WNW 5 6 - - - - 10 Partly cloudy - 9.2 1023.2 0.0
29/09:00am WNW 5 6 - - - - 10 Mostly clear - 7.6 1023.1 0.0
29/08:57am WNW 5 7 - - - - 10 Partly cloudy - 7.4 1023.1 0.0
29/08:30am WNW 6 7 - - - - 10 Partly cloudy - 6.5 1023.0 0.0
29/08:00am WNW 6 7 - - - - 10 Partly cloudy - 5.2 1023.0 0.0
29/07:48am WNW 6 7 - - - - 10 Partly cloudy - 4.6 1022.9 0.0
29/07:30am WNW 6 7 - - - - 1 Partly cloudy - 4.5 1022.8 0.0
29/07:28am W 6 7 - - - - 0.9 Partly cloudy - 4.4 1022.8 0.0
29/07:19am W 6 7 - - - - 5 Partly cloudy - 4.0 1022.8 0.0
29/07:00am W 6 7 - - - - 10 Partly cloudy - 3.7 1022.6 0.0
29/06:30am WNW 5 6 - - - - 10 Partly cloudy - 4.8 1022.6 0.0
29/06:00am W 6 7 - - - - 10 Mostly cloudy - 4.4 1022.5 0.0
29/05:41am WNW 6 7 - - - - 10 Partly cloudy - 5.2 1022.4 0.0
29/05:30am WNW 7 8 - - - - 10 Partly cloudy - 4.7 1022.4 0.0
29/05:00am WNW 6 7 - - - - 10 - - 4.5 1022.5 0.0
29/04:30am WNW 6 7 - - - - 10 - - 5.4 1022.6 0.0
29/04:00am WNW 5 6 - - - - 10 - - 5.2 1022.7 0.0
29/03:30am WNW 6 6 - - - - 10 - - 4.8 1022.8 0.0
29/03:00am W 5 6 - - - - 10 - - 5.1 1023.0 0.0
29/02:30am W 6 7 - - - - 10 - - 5.0 1023.1 0.0
29/02:00am WNW 6 7 - - - - 10 - - 5.7 1023.0 0.0
29/01:30am W 6 6 - - - - 10 - - 5.5 1023.1 0.0
29/01:00am W 5 7 - - - - 10 - - 5.8 1023.3 0.0
29/12:30am WNW 6 7 - - - - 10 - - 6.1 1023.5 0.0
29/12:00am W 6 6 - - - - 9 - - 5.4 1023.7 0.0
 
Date/Time
EST
Wind Sea
Height
m
Swell Vis
km
Cloud Weather Temp
°C
Press
MSL
hPa
Rain since
9am
mm
Dir  Spd
kts
Gust
kts
Height
m
Period
s
Dir
28/11:52pm W 5 6 - - - - 10 - - 6.1 1023.7 0.0
28/11:30pm WSW 5 5 - - - - 4 - - 6.3 1023.7 0.0
28/11:27pm WSW 5 5 - - - - 5 - - 5.9 1023.7 0.0
28/11:00pm W 6 7 - - - - 9 - - 6.1 1023.9 0.0
28/10:45pm W 7 8 - - - - 10 - - 7.3 1023.9 0.0
28/10:30pm WSW 5 6 - - - - 3 - - 6.2 1023.9 0.0
28/10:16pm WSW 5 6 - - - - 5 - - 6.5 1024.0 0.0
28/10:00pm SW 5 6 - - - - 10 - - 6.9 1024.1 0.0
28/09:30pm W 5 6 - - - - 10 - - 7.5 1024.0 0.0
28/09:00pm W 4 5 - - - - 10 - - 8.9 1023.9 0.0
28/08:30pm WNW 4 5 - - - - 10 - - 10.0 1023.8 0.0
28/08:00pm WSW 6 7 - - - - 10 - - 8.9 1023.8 0.0
28/07:30pm NW 4 5 - - - - 10 - - 10.5 1023.7 0.0
28/07:00pm WNW 7 9 - - - - 10 - - 12.1 1023.4 0.0
28/06:30pm NW 7 9 - - - - 10 - - 13.8 1023.2 0.0
28/06:00pm NW 7 8 - - - - 10 - - 13.7 1022.9 0.0
28/05:30pm NW 7 8 - - - - 10 - - 14.3 1022.7 0.0
28/05:00pm NW 9 13 - - - - 10 - - 15.3 1022.6 0.0
28/04:30pm NNW 10 12 - - - - 10 - - 15.9 1022.6 0.0
28/04:00pm NNW 9 12 - - - - 10 - - 16.7 1022.4 0.0
28/03:30pm NW 7 10 - - - - 10 - - 18.2 1022.4 0.0
28/03:00pm NNW 8 11 - - - - 10 - - 18.4 1022.1 0.0
28/02:30pm WNW 9 13 - - - - 10 - - 18.8 1022.1 0.0
28/02:00pm W 12 16 - - - - 10 - - 19.2 1022.0 0.0
28/01:30pm WNW 12 17 - - - - 10 - - 19.2 1022.2 0.0
28/01:00pm WNW 11 15 - - - - 10 Partly cloudy - 18.2 1022.3 0.0
28/12:30pm WNW 9 11 - - - - 10 Partly cloudy - 17.6 1022.5 0.0
28/12:00pm WSW 8 11 - - - - 10 Partly cloudy - 17.3 1022.8 0.0
28/11:30am W 8 12 - - - - 10 Partly cloudy - 17.7 1023.2 0.0
28/11:00am W 9 13 - - - - 10 Partly cloudy - 16.8 1023.4 0.0
28/10:30am WSW 6 10 - - - - 10 Partly cloudy - 16.1 1023.1 0.0
28/10:00am W 5 7 - - - - 10 Partly cloudy - 15.9 1023.4 0.0
28/09:30am WNW 6 7 - - - - 10 Partly cloudy - 15.3 1023.3 0.0
28/09:00am WNW 5 7 - - - - 10 Mostly clear - 13.6 1023.3 0.0
28/08:30am WNW 5 7 - - - - 10 Partly cloudy - 13.1 1023.0 0.0
28/08:00am W 6 8 - - - - 10 Partly cloudy - 11.9 1022.8 0.0
28/07:30am WNW 6 7 - - - - 10 Partly cloudy - 11.2 1022.3 0.0
28/07:00am WNW 7 9 - - - - 10 Partly cloudy - 11.9 1022.0 0.0
28/06:30am W 6 8 - - - - 10 Cloudy - 11.3 1021.9 0.0
28/06:00am WNW 4 7 - - - - 10 Mostly cloudy - 11.0 1021.7 0.0
28/05:30am W 3 4 - - - - 10 Cloudy - 11.2 1021.8 0.0
28/05:00am WNW 5 6 - - - - 10 Cloudy - 10.7 1021.8 0.0
28/04:30am WNW 5 6 - - - - 10 Cloudy - 11.3 1021.6 0.0
28/04:00am NW 7 9 - - - - 10 Partly cloudy - 11.5 1021.6 0.0
28/03:30am WNW 5 6 - - - - 10 Partly cloudy - 11.2 1021.6 0.0
28/03:00am NW 5 7 - - - - 10 Cloudy - 11.3 1021.8 0.0
28/02:30am W 5 6 - - - - 10 Partly cloudy - 10.4 1021.9 0.0
28/02:00am WNW 6 7 - - - - 10 Cloudy - 10.8 1021.8 0.0
28/01:30am W 6 7 - - - - 10 Cloudy - 8.8 1021.8 0.0
28/01:00am WNW 6 7 - - - - 10 Cloudy - 8.5 1021.8 0.0
28/12:30am W 6 6 - - - - 10 Partly cloudy - 6.2 1021.9 0.0
28/12:00am WSW 6 8 - - - - 10 Mostly clear - 5.9 1021.9 0.0
 
Date/Time
EST
Wind Sea
Height
m
Swell Vis
km
Cloud Weather Temp
°C
Press
MSL
hPa
Rain since
9am
mm
Dir  Spd
kts
Gust
kts
Height
m
Period
s
Dir
27/11:30pm WSW 6 8 - - - - 10 Partly cloudy - 6.4 1022.1 0.0
27/11:00pm WSW 5 7 - - - - 10 Partly cloudy - 6.7 1022.2 0.0
27/10:30pm WSW 6 7 - - - - 10 Cloudy - 7.2 1022.2 0.0
27/10:00pm SW 4 5 - - - - 10 Partly cloudy - 7.6 1022.1 0.0
27/09:30pm SSW 1 3 - - - - 10 Partly cloudy - 7.4 1021.9 0.0
27/09:00pm W 3 3 - - - - 10 Mostly cloudy - 9.3 1022.0 0.0
27/08:30pm W 4 6 - - - - 10 Cloudy - 10.0 1021.9 0.0

Other formats

Comma delimited format used in spreadsheet applications
http://www.bom.gov.au/fwo/IDV60701/IDV60701.95957.axf

JavaScript Object Notation format (JSON) in row-major order
http://www.bom.gov.au/fwo/IDV60701/IDV60701.95957.json

Data quality

Most of these data are generated automatically and are frequently updated. Quality checks on data are not normally performed. It is possible for incorrect values to appear. Refer to information at About Latest Weather Observations and please check the disclaimer before using these data.